Time;durP1;ratioP1;P1;durP2;ratioP2;P2;SDS_P1;SDS_P2;PMS_P1;PMS_P2;Temp;Humidity;BMP_temperature;BMP_pressure;BME280_temperature;BME280_humidity;BME280_pressure;Samples;Min_cycle;Max_cycle;Signal;HPM_P1;HPM_P2
2022/08/29 00:00:38;;;;;;;12.87;6.87;;;;;;;21.40;68.38;100205.93;1698294;82;21662;-71
2022/08/29 00:03:05;;;;;;;11.60;6.40;;;;;;;21.33;68.70;100201.59;1701206;82;21055;-70
2022/08/29 00:05:35;;;;;;;9.70;6.10;;;;;;;21.34;68.88;100195.81;1699887;84;21063;-71
2022/08/29 00:08:02;;;;;;;10.50;6.23;;;;;;;21.39;68.88;100188.84;1700105;84;21166;-72
2022/08/29 00:10:31;;;;;;;10.00;6.87;;;;;;;21.45;68.67;100191.54;1699637;82;21039;-72
2022/08/29 00:12:58;;;;;;;8.73;6.57;;;;;;;21.49;68.35;100190.32;1698640;82;21079;-70
2022/08/29 00:15:27;;;;;;;11.03;6.40;;;;;;;21.49;67.96;100194.39;1697800;82;21032;-72
2022/08/29 00:17:53;;;;;;;11.73;6.93;;;;;;;21.51;67.85;100181.25;1698639;82;21693;-73
2022/08/29 00:20:24;;;;;;;10.50;6.43;;;;;;;21.50;67.66;100190.54;1697954;82;21157;-72
2022/08/29 00:22:51;;;;;;;10.20;5.87;;;;;;;21.50;67.36;100190.54;1695351;82;20980;-74
2022/08/29 00:25:18;;;;;;;10.47;6.00;;;;;;;21.36;67.49;100198.23;1698317;82;21031;-72
2022/08/29 00:27:45;;;;;;;9.70;6.40;;;;;;;21.27;67.66;100195.02;1702176;82;21079;-71
2022/08/29 00:30:12;;;;;;;11.63;6.23;;;;;;;21.28;67.92;100186.30;1703724;82;21102;-70
2022/08/29 00:32:41;;;;;;;9.33;6.03;;;;;;;21.44;67.70;100182.38;1698309;82;22127;-70
2022/08/29 00:35:12;;;;;;;9.37;6.20;;;;;;;21.50;67.68;100178.31;1697867;83;21062;-72
2022/08/29 00:37:40;;;;;;;7.67;6.33;;;;;;;21.54;67.61;100181.92;1699899;82;21115;-72
2022/08/29 00:40:09;;;;;;;8.33;5.90;;;;;;;21.62;67.59;100184.30;1698763;82;22433;-73
2022/08/29 00:42:37;;;;;;;11.57;5.90;;;;;;;21.65;67.45;100184.44;1697963;82;20948;-73
2022/08/29 00:45:06;;;;;;;9.00;6.07;;;;;;;21.65;67.45;100181.72;1695273;82;21177;-71
2022/08/29 00:47:36;;;;;;;9.07;5.60;;;;;;;21.66;67.56;100179.78;1698799;82;21027;-72
2022/08/29 00:50:06;;;;;;;9.50;5.57;;;;;;;21.68;67.60;100180.22;1698365;82;21110;-73
2022/08/29 00:52:45;;;;;;;8.83;6.10;;;;;;;21.67;67.71;100178.08;1698488;82;22471;-72
2022/08/29 00:55:18;;;;;;;9.13;5.90;;;;;;;21.72;67.78;100181.14;1698302;82;21063;-73
2022/08/29 00:57:50;;;;;;;7.90;6.07;;;;;;;21.78;67.83;100181.12;1698928;82;21323;-73
2022/08/29 01:00:17;;;;;;;10.20;6.58;;;;;;;21.83;67.72;100178.75;1696331;82;21005;-72
2022/08/29 01:02:46;;;;;;;8.83;5.93;;;;;;;21.82;67.73;100176.60;1700523;82;21150;-73
2022/08/29 01:05:14;;;;;;;7.90;5.80;;;;;;;21.82;67.81;100181.25;1698869;82;21197;-73
2022/08/29 01:07:42;;;;;;;8.77;5.83;;;;;;;21.83;67.90;100180.11;1698058;82;21113;-73
2022/08/29 01:10:09;;;;;;;11.83;6.17;;;;;;;21.86;67.96;100178.07;1698775;82;21611;-73
2022/08/29 01:12:37;;;;;;;10.87;6.03;;;;;;;21.91;68.08;100175.09;1697617;82;21617;-72
2022/08/29 01:15:08;;;;;;;7.93;6.03;;;;;;;21.94;68.14;100184.72;1698812;82;21778;-72
2022/08/29 01:17:44;;;;;;;10.28;6.17;;;;;;;21.98;68.16;100178.03;1700213;82;21558;-72
2022/08/29 01:20:22;;;;;;;7.73;6.07;;;;;;;21.99;68.17;100170.91;1698192;82;21553;-72
2022/08/29 01:23:22;;;;;;;8.10;5.97;;;;;;;22.00;68.20;100165.68;1698481;82;21111;-73
2022/08/29 01:25:50;;;;;;;9.83;6.07;;;;;;;21.99;68.27;100167.39;1704495;83;21094;-72
2022/08/29 01:28:21;;;;;;;9.53;6.53;;;;;;;22.01;68.46;100167.83;1698875;82;21348;-73
2022/08/29 01:31:07;;;;;;;8.63;5.95;;;;;;;22.03;68.59;100166.14;1698472;82;27717;-73
2022/08/29 01:33:43;;;;;;;9.17;6.13;;;;;;;22.05;68.67;100166.03;1698594;82;21004;-73
2022/08/29 01:36:21;;;;;;;10.60;6.30;;;;;;;22.08;68.73;100172.14;1699931;82;21898;-73
2022/08/29 01:38:48;;;;;;;9.90;6.60;;;;;;;22.10;68.82;100167.70;1701531;84;21075;-73
2022/08/29 01:41:17;;;;;;;10.60;6.57;;;;;;;22.11;68.83;100161.12;1700329;82;21063;-73
2022/08/29 01:43:47;;;;;;;8.53;6.13;;;;;;;22.13;68.87;100160.22;1699425;82;21098;-72
2022/08/29 01:46:19;;;;;;;9.07;6.03;;;;;;;22.14;68.87;100156.35;1701590;84;20972;-73
2022/08/29 01:48:46;;;;;;;8.93;6.50;;;;;;;22.14;68.85;100161.22;1701535;84;21141;-72
2022/08/29 01:51:13;;;;;;;9.83;6.20;;;;;;;22.15;68.91;100158.77;1700656;82;21128;-72
2022/08/29 01:53:40;;;;;;;8.13;6.40;;;;;;;22.17;68.91;100161.14;1698133;82;21072;-74
2022/08/29 01:56:17;;;;;;;7.97;6.23;;;;;;;22.19;68.85;100161.59;1698597;82;21504;-72
2022/08/29 01:58:46;;;;;;;9.47;6.50;;;;;;;22.17;68.76;100163.28;1701487;82;21021;-73
2022/08/29 02:01:14;;;;;;;9.40;6.37;;;;;;;22.11;68.82;100166.02;1699693;82;21121;-71
2022/08/29 02:03:41;;;;;;;8.83;6.73;;;;;;;22.07;68.74;100160.23;1701336;82;21019;-72
2022/08/29 02:06:09;;;;;;;9.70;6.80;;;;;;;21.98;68.73;100163.89;1699471;84;21111;-72
2022/08/29 02:08:39;;;;;;;9.80;7.17;;;;;;;21.93;68.78;100161.97;1698202;84;21062;-71
2022/08/29 02:11:11;;;;;;;10.20;7.27;;;;;;;21.91;68.78;100163.66;1699614;82;21271;-71
2022/08/29 02:13:38;;;;;;;12.10;7.10;;;;;;;21.88;68.63;100164.91;1673324;84;22354;-71
2022/08/29 02:16:08;;;;;;;9.73;6.97;;;;;;;21.81;68.57;100155.97;1699956;84;21525;-72
2022/08/29 02:18:35;;;;;;;10.00;7.10;;;;;;;21.76;68.61;100165.16;1703529;83;21046;-72
2022/08/29 02:21:03;;;;;;;13.87;8.73;;;;;;;21.75;68.59;100157.33;1701259;83;21042;-72
2022/08/29 02:23:31;;;;;;;10.77;7.63;;;;;;;21.74;68.37;100163.34;1701514;84;21530;-71
2022/08/29 02:26:06;;;;;;;10.77;7.57;;;;;;;21.73;68.17;100161.77;1674003;83;21226;-71
2022/08/29 02:29:01;;;;;;;12.50;8.30;;;;;;;21.71;68.06;100160.52;1715912;82;21076;-71
2022/08/29 02:31:39;;;;;;;12.00;7.60;;;;;;;21.68;67.99;100163.34;1730547;83;21058;-72
2022/08/29 02:34:10;;;;;;;9.50;7.33;;;;;;;21.64;67.92;100166.52;1710188;83;21064;-72
2022/08/29 02:36:45;;;;;;;11.07;7.60;;;;;;;21.58;67.88;100163.80;1700679;83;21067;-71
2022/08/29 02:39:19;;;;;;;11.27;8.33;;;;;;;21.53;67.85;100165.41;1719369;82;21179;-73
2022/08/29 02:41:48;;;;;;;10.23;7.67;;;;;;;21.49;67.84;100168.58;1672672;85;20967;-73
2022/08/29 02:44:23;;;;;;;10.97;8.13;;;;;;;21.45;67.83;100173.09;1691297;84;21554;-73
2022/08/29 02:46:56;;;;;;;10.67;7.67;;;;;;;21.38;67.79;100170.94;1701078;84;21025;-73
2022/08/29 02:49:29;;;;;;;10.87;7.67;;;;;;;21.32;67.83;100165.46;1699532;84;21088;-73
2022/08/29 02:52:05;;;;;;;9.07;7.70;;;;;;;21.26;67.88;100170.34;1672538;84;21646;-73
2022/08/29 02:54:39;;;;;;;13.13;7.97;;;;;;;21.20;68.00;100179.84;1700248;83;21023;-72
2022/08/29 02:57:08;;;;;;;10.70;7.87;;;;;;;21.13;68.04;100170.11;1723975;82;20964;-71
2022/08/29 02:59:38;;;;;;;9.27;6.93;;;;;;;21.06;68.06;100166.59;1748748;82;21012;-72
2022/08/29 03:02:07;;;;;;;10.80;7.53;;;;;;;21.01;68.10;100173.58;1735753;82;21502;-70
2022/08/29 03:04:35;;;;;;;10.10;7.50;;;;;;;20.85;68.28;100174.78;1718627;82;21640;-71
2022/08/29 03:07:12;;;;;;;9.73;7.00;;;;;;;20.74;68.55;100180.41;1715816;82;21142;-70
2022/08/29 03:09:47;;;;;;;9.90;7.90;;;;;;;20.65;68.70;100185.13;1688811;82;21020;-70
2022/08/29 03:12:22;;;;;;;12.07;7.27;;;;;;;20.58;68.93;100182.16;1718627;82;21023;-70
2022/08/29 03:14:56;;;;;;;11.27;7.80;;;;;;;20.57;69.10;100176.52;1746780;82;21063;-71
2022/08/29 03:17:27;;;;;;;10.00;7.60;;;;;;;20.55;69.19;100186.33;1717942;82;21170;-70
2022/08/29 03:19:57;;;;;;;9.83;7.40;;;;;;;20.57;69.23;100187.37;1746813;82;21051;-71
2022/08/29 03:22:26;;;;;;;10.27;7.77;;;;;;;20.59;69.18;100191.88;1724418;81;21539;-70
2022/08/29 03:25:09;;;;;;;12.50;7.90;;;;;;;20.60;69.15;100190.77;1718847;83;21537;-71
2022/08/29 03:27:38;;;;;;;13.20;7.70;;;;;;;20.61;69.11;100195.06;1719084;83;21019;-71
2022/08/29 03:30:16;;;;;;;12.03;7.60;;;;;;;20.61;69.04;100193.14;1727516;82;21087;-70
2022/08/29 03:32:48;;;;;;;12.57;7.60;;;;;;;20.61;68.97;100190.42;1742639;82;21067;-71
2022/08/29 03:35:20;;;;;;;9.67;7.53;;;;;;;20.61;68.93;100192.34;1718332;83;21048;-70
2022/08/29 03:37:58;;;;;;;10.40;7.33;;;;;;;20.63;68.88;100192.00;1718842;83;21062;-71
2022/08/29 03:40:34;;;;;;;10.90;7.60;;;;;;;20.64;68.83;100199.83;1718926;83;21094;-71
2022/08/29 03:43:12;;;;;;;11.05;7.17;;;;;;;20.67;68.69;100197.02;1714482;82;21647;-71
2022/08/29 03:45:42;;;;;;;11.07;7.83;;;;;;;20.68;68.62;100196.67;1718985;83;21047;-70
2022/08/29 03:48:21;;;;;;;11.00;7.17;;;;;;;20.70;68.60;100198.50;1719020;82;21106;-70
2022/08/29 03:50:58;;;;;;;9.77;7.23;;;;;;;20.69;68.50;100196.89;1713319;82;21079;-70
2022/08/29 03:53:31;;;;;;;8.63;6.87;;;;;;;20.73;68.52;100202.44;1698256;84;21140;-71
2022/08/29 03:56:06;;;;;;;11.80;7.10;;;;;;;20.74;68.50;100200.77;1689025;83;21119;-70
2022/08/29 03:58:40;;;;;;;11.90;6.70;;;;;;;20.77;68.40;100206.09;1715169;83;21052;-70
2022/08/29 04:01:10;;;;;;;10.43;6.90;;;;;;;20.78;68.16;100208.47;1694713;84;21031;-70
2022/08/29 04:03:43;;;;;;;11.20;6.90;;;;;;;20.79;68.17;100207.33;1668108;84;21016;-70
2022/08/29 04:06:18;;;;;;;11.87;6.43;;;;;;;20.88;67.99;100218.69;1682400;84;21030;-71
2022/08/29 04:08:52;;;;;;;10.10;6.30;;;;;;;20.94;67.70;100215.98;1717609;83;21372;-69
2022/08/29 04:11:28;;;;;;;11.67;6.60;;;;;;;20.99;67.24;100212.52;1718906;83;21058;-71
2022/08/29 04:14:11;;;;;;;9.60;6.10;;;;;;;21.05;67.01;100213.07;1718707;83;21164;-71
2022/08/29 04:16:51;;;;;;;11.50;5.87;;;;;;;21.14;66.63;100214.34;1693687;83;20972;-69
2022/08/29 04:19:25;;;;;;;9.83;5.30;;;;;;;21.21;66.10;100215.94;1718419;83;20959;-70
2022/08/29 04:22:03;;;;;;;12.20;6.30;;;;;;;21.25;65.68;100220.35;1721541;82;21237;-70
2022/08/29 04:24:44;;;;;;;12.07;5.40;;;;;;;21.29;65.39;100218.57;1669648;86;21601;-70
2022/08/29 04:27:19;;;;;;;9.43;5.60;;;;;;;21.38;64.97;100213.61;1662328;86;21083;-70
2022/08/29 04:29:55;;;;;;;10.50;5.60;;;;;;;21.45;64.27;100216.56;1693978;84;21464;-71
2022/08/29 04:32:24;;;;;;;9.27;5.40;;;;;;;21.54;64.07;100213.97;1674168;84;21087;-70
2022/08/29 04:35:00;;;;;;;8.50;5.60;;;;;;;21.65;63.72;100212.97;1701729;84;21218;-70
2022/08/29 04:37:33;;;;;;;9.33;5.43;;;;;;;21.74;63.32;100209.55;1700963;84;21021;-69
2022/08/29 04:40:09;;;;;;;8.73;5.50;;;;;;;21.86;62.84;100213.41;1701375;82;21009;-69
2022/08/29 04:42:41;;;;;;;11.97;5.97;;;;;;;21.98;62.15;100214.73;1701553;84;21076;-69
2022/08/29 04:45:19;;;;;;;9.60;5.60;;;;;;;22.10;61.67;100213.37;1701396;84;21013;-71
2022/08/29 04:47:49;;;;;;;8.27;5.30;;;;;;;22.23;61.37;100213.59;1691387;83;21838;-71
2022/08/29 04:50:26;;;;;;;9.50;5.17;;;;;;;22.34;61.01;100213.94;1719113;81;21120;-71
2022/08/29 04:52:57;;;;;;;8.00;5.57;;;;;;;22.43;60.68;100211.05;1726299;83;21478;-71
2022/08/29 04:55:28;;;;;;;8.83;5.33;;;;;;;22.53;60.20;100217.37;1726777;83;21051;-71
2022/08/29 04:58:34;;;;;;;10.40;5.80;;;;;;;22.63;60.09;100220.95;1726753;83;20964;-71
2022/08/29 05:01:01;;;;;;;8.93;5.50;;;;;;;22.77;59.96;100214.32;1722752;82;21126;-70
2022/08/29 05:03:29;;;;;;;10.43;5.60;;;;;;;22.92;59.54;100217.09;1725954;82;21153;-70
2022/08/29 05:06:00;;;;;;;9.37;5.20;;;;;;;23.02;59.32;100215.81;1711595;83;21062;-71
2022/08/29 05:08:28;;;;;;;10.47;5.40;;;;;;;23.11;58.86;100209.64;1696475;82;21058;-71
2022/08/29 05:10:56;;;;;;;9.17;5.27;;;;;;;23.23;58.51;100221.59;1704194;83;21090;-72
2022/08/29 05:13:23;;;;;;;7.37;5.00;;;;;;;23.31;58.17;100220.65;1697948;82;21164;-71
2022/08/29 05:15:50;;;;;;;10.37;5.57;;;;;;;23.39;57.93;100221.82;1698255;82;21015;-71
2022/08/29 05:18:17;;;;;;;8.80;5.10;;;;;;;23.49;57.79;100219.14;1698432;82;21163;-70
2022/08/29 05:20:46;;;;;;;9.03;5.03;;;;;;;23.57;57.62;100218.19;1698568;83;21003;-71
2022/08/29 05:23:13;;;;;;;8.67;5.57;;;;;;;23.61;57.19;100211.45;1684830;82;20955;-71
2022/08/29 05:25:40;;;;;;;8.37;4.90;;;;;;;23.65;56.92;100217.20;1698085;82;21231;-70
2022/08/29 05:28:10;;;;;;;8.83;5.33;;;;;;;23.70;56.91;100216.76;1698366;82;21081;-71
2022/08/29 05:30:38;;;;;;;11.33;5.60;;;;;;;23.75;56.85;100214.53;1670251;82;21051;-71
2022/08/29 05:33:06;;;;;;;8.70;5.53;;;;;;;23.83;56.65;100216.87;1698528;82;21608;-72
2022/08/29 05:35:34;;;;;;;8.73;5.40;;;;;;;23.86;56.62;100215.59;1695707;83;20988;-72
2022/08/29 05:38:01;;;;;;;9.93;5.27;;;;;;;23.94;56.56;100217.11;1696137;83;21918;-70
2022/08/29 05:40:28;;;;;;;9.43;5.63;;;;;;;23.98;56.11;100209.79;1697624;82;21024;-71
2022/08/29 05:42:55;;;;;;;7.47;5.50;;;;;;;24.05;55.91;100216.21;1698596;84;21059;-71
2022/08/29 05:45:22;;;;;;;8.27;4.83;;;;;;;24.15;55.58;100218.93;1673132;85;21454;-71
2022/08/29 05:47:49;;;;;;;9.33;5.27;;;;;;;24.23;55.44;100215.80;1673332;85;21091;-71
2022/08/29 05:50:17;;;;;;;9.07;5.60;;;;;;;24.30;55.24;100220.05;1672267;85;21184;-71
2022/08/29 05:52:43;;;;;;;11.33;5.60;;;;;;;24.34;55.14;100212.13;1680852;84;21068;-72
2022/08/29 05:55:11;;;;;;;7.57;5.60;;;;;;;24.45;55.08;100212.41;1701594;84;21099;-72
2022/08/29 05:57:37;;;;;;;7.97;5.77;;;;;;;24.56;55.00;100220.80;1701783;84;21060;-71
2022/08/29 06:00:07;;;;;;;8.53;5.67;;;;;;;24.72;54.42;100220.73;1700993;84;21047;-72
2022/08/29 06:02:36;;;;;;;;;;;;;;;24.86;54.13;100219.63;1699191;82;21273;-72
2022/08/29 06:05:03;;;;;;;9.10;5.87;;;;;;;24.99;54.00;100214.79;1702645;83;20139;-71
2022/08/29 06:07:31;;;;;;;9.43;5.53;;;;;;;25.09;53.71;100211.45;1702139;82;21073;-70
2022/08/29 06:10:00;;;;;;;7.50;5.43;;;;;;;25.17;53.51;100217.31;1698276;82;21012;-72
2022/08/29 06:12:28;;;;;;;10.10;5.97;;;;;;;25.26;52.98;100214.31;1698892;83;21106;-70
2022/08/29 06:14:55;;;;;;;9.37;6.00;;;;;;;25.36;52.32;100209.59;1698045;82;21888;-73
2022/08/29 06:17:21;;;;;;;9.23;5.53;;;;;;;25.48;52.07;100212.16;1698531;82;21169;-71
2022/08/29 06:19:50;;;;;;;9.90;5.60;;;;;;;25.59;52.08;100212.89;1700265;83;20983;-72
2022/08/29 06:22:18;;;;;;;9.40;5.80;;;;;;;25.71;51.72;100213.48;1703056;82;21054;-71
2022/08/29 06:24:45;;;;;;;9.67;6.60;;;;;;;25.84;50.76;100220.94;1699956;82;20952;-71
2022/08/29 06:27:12;;;;;;;10.93;6.90;;;;;;;25.92;49.75;100223.98;1698585;82;21124;-72
2022/08/29 06:29:38;;;;;;;12.17;6.53;;;;;;;26.01;49.76;100220.98;1697694;82;21062;-72
2022/08/29 06:32:05;;;;;;;12.23;6.87;;;;;;;26.12;48.81;100219.75;1701003;83;21122;-71
2022/08/29 06:34:32;;;;;;;11.07;6.73;;;;;;;26.22;48.38;100220.47;1698533;82;21077;-72
2022/08/29 06:36:58;;;;;;;11.53;7.80;;;;;;;26.27;48.30;100224.27;1698118;82;21550;-72
2022/08/29 06:39:25;;;;;;;12.20;6.87;;;;;;;26.34;47.93;100223.58;1699124;82;21236;-72
2022/08/29 06:41:52;;;;;;;9.90;7.17;;;;;;;26.42;47.45;100226.04;1698051;82;21133;-70
2022/08/29 06:44:21;;;;;;;10.20;7.17;;;;;;;26.53;47.18;100227.56;1697624;82;21058;-72
2022/08/29 06:46:48;;;;;;;11.87;7.53;;;;;;;26.60;46.91;100229.59;1698734;82;21173;-72
2022/08/29 06:49:16;;;;;;;10.40;7.40;;;;;;;26.68;46.85;100231.24;1685271;82;21198;-71
2022/08/29 06:51:45;;;;;;;10.93;7.10;;;;;;;26.79;46.57;100240.38;1699320;82;21222;-71
2022/08/29 06:54:12;;;;;;;11.67;7.80;;;;;;;26.90;45.92;100234.42;1701378;83;20963;-72
2022/08/29 06:56:39;;;;;;;11.87;8.00;;;;;;;26.95;46.04;100237.98;1701659;84;21011;-71
2022/08/29 06:59:05;;;;;;;12.57;8.53;;;;;;;26.99;46.04;100236.87;1698770;84;21146;-71
2022/08/29 07:01:32;;;;;;;12.77;7.80;;;;;;;27.12;45.54;100233.28;1698513;82;21043;-73
2022/08/29 07:03:59;;;;;;;11.53;7.97;;;;;;;27.22;45.52;100235.37;1698965;82;21111;-72
2022/08/29 07:06:26;;;;;;;11.23;8.17;;;;;;;27.30;44.57;100230.73;1670283;82;20980;-72
2022/08/29 07:08:53;;;;;;;10.67;8.30;;;;;;;27.44;44.69;100236.33;1698147;82;21081;-72
2022/08/29 07:11:22;;;;;;;13.37;9.00;;;;;;;27.56;44.63;100224.28;1700651;82;21122;-73
2022/08/29 07:13:49;;;;;;;11.20;8.20;;;;;;;27.64;44.08;100225.92;1698424;82;21020;-74
2022/08/29 07:16:17;;;;;;;11.93;8.90;;;;;;;27.76;43.83;100231.67;1699068;82;21134;-73
2022/08/29 07:18:45;;;;;;;12.70;8.73;;;;;;;27.86;43.54;100231.58;1696398;82;20963;-73
2022/08/29 07:21:15;;;;;;;13.13;8.80;;;;;;;27.92;42.99;100232.80;1698600;82;21035;-73
2022/08/29 07:23:42;;;;;;;14.27;9.17;;;;;;;27.98;42.91;100234.02;1697989;82;21506;-74
2022/08/29 07:26:19;;;;;;;12.33;9.63;;;;;;;28.06;42.11;100230.91;1698152;82;21027;-74
2022/08/29 07:28:51;;;;;;;14.17;9.43;;;;;;;28.16;42.64;100229.98;1697923;83;21269;-75
2022/08/29 07:31:17;;;;;;;13.83;9.13;;;;;;;28.26;42.16;100233.37;1695148;82;21036;-75
2022/08/29 07:33:44;;;;;;;14.60;9.57;;;;;;;28.34;41.64;100232.84;1696129;82;21538;-73
2022/08/29 07:36:11;;;;;;;13.97;9.83;;;;;;;28.42;40.64;100234.45;1697903;82;21133;-74
2022/08/29 07:38:38;;;;;;;12.07;9.00;;;;;;;28.40;40.68;100236.23;1701334;83;21079;-73
2022/08/29 07:41:09;;;;;;;11.90;8.83;;;;;;;28.47;40.28;100232.14;1701298;84;21423;-71
2022/08/29 07:43:37;;;;;;;15.43;9.87;;;;;;;28.55;40.25;100234.31;1698871;82;21047;-73
2022/08/29 07:46:13;;;;;;;12.23;9.60;;;;;;;28.59;39.77;100232.36;1672860;85;21015;-72
2022/08/29 07:48:40;;;;;;;13.37;9.07;;;;;;;28.66;39.45;100230.22;1679779;82;21051;-73
2022/08/29 07:51:08;;;;;;;12.67;9.37;;;;;;;28.71;39.62;100230.64;1698552;83;21408;-73
2022/08/29 07:53:34;;;;;;;12.60;9.17;;;;;;;28.80;39.40;100229.50;1698258;82;21170;-74
2022/08/29 07:56:08;;;;;;;13.17;9.27;;;;;;;28.89;39.20;100234.02;1698055;82;21620;-73
2022/08/29 07:58:35;;;;;;;10.33;9.00;;;;;;;28.98;39.25;100227.56;1696222;82;21106;-73
2022/08/29 08:01:02;;;;;;;12.47;9.47;;;;;;;29.12;39.43;100227.63;1700400;82;20975;-74
2022/08/29 08:03:31;;;;;;;12.77;9.33;;;;;;;29.25;39.36;100225.85;1701354;84;20967;-73
2022/08/29 08:05:58;;;;;;;13.47;9.47;;;;;;;29.43;38.87;100225.28;1701018;84;21199;-74
2022/08/29 08:08:25;;;;;;;15.53;10.50;;;;;;;29.57;38.91;100229.98;1700046;83;21047;-74
2022/08/29 08:10:52;;;;;;;14.60;9.57;;;;;;;29.69;38.42;100235.12;1700050;84;20979;-74
2022/08/29 08:13:18;;;;;;;12.90;9.63;;;;;;;29.83;38.41;100230.19;1698776;82;21629;-74
2022/08/29 08:15:45;;;;;;;13.00;10.13;;;;;;;29.99;38.84;100233.89;1699663;82;21059;-73
2022/08/29 08:18:12;;;;;;;16.20;10.37;;;;;;;30.15;38.18;100235.62;1701567;84;21272;-73
2022/08/29 08:20:39;;;;;;;11.47;8.63;;;;;;;30.29;37.25;100233.44;1726908;83;21059;-74
2022/08/29 08:23:05;;;;;;;11.87;8.83;;;;;;;30.41;36.53;100238.52;1714766;82;21078;-73
2022/08/29 08:25:32;;;;;;;14.17;9.43;;;;;;;30.44;36.78;100240.47;1715095;82;21054;-73
2022/08/29 08:27:59;;;;;;;11.47;9.27;;;;;;;30.48;36.58;100245.37;1715885;82;21007;-72
2022/08/29 08:30:25;;;;;;;12.50;9.43;;;;;;;30.58;37.06;100239.02;1685739;83;21780;-71
2022/08/29 08:32:52;;;;;;;12.00;9.33;;;;;;;30.73;36.41;100236.96;1718470;83;20959;-71
2022/08/29 08:35:20;;;;;;;13.13;9.07;;;;;;;30.89;36.13;100235.73;1712855;82;21061;-72
2022/08/29 08:37:48;;;;;;;12.77;9.37;;;;;;;31.02;35.95;100234.07;1716068;83;21178;-74
2022/08/29 08:40:22;;;;;;;12.07;8.93;;;;;;;31.15;35.38;100233.78;1715040;82;21036;-74
2022/08/29 08:42:49;;;;;;;11.50;8.63;;;;;;;31.27;34.94;100228.38;1716064;82;21146;-72
2022/08/29 08:45:25;;;;;;;12.43;9.70;;;;;;;31.34;33.96;100231.11;1715470;82;21095;-73
2022/08/29 08:48:06;;;;;;;11.57;9.27;;;;;;;31.35;33.99;100233.27;1712847;82;21274;-74
2022/08/29 08:50:53;;;;;;;13.33;9.40;;;;;;;31.46;34.21;100229.25;1712489;83;21063;-74
2022/08/29 08:53:33;;;;;;;13.50;9.07;;;;;;;31.56;33.98;100225.39;1715482;82;21074;-73
2022/08/29 08:56:04;;;;;;;11.67;8.90;;;;;;;31.70;33.96;100233.56;1710075;82;21531;-73
2022/08/29 08:58:53;;;;;;;12.35;9.00;;;;;;;31.82;32.97;100233.63;1718975;83;21004;-73
2022/08/29 09:01:30;;;;;;;13.07;9.10;;;;;;;31.83;32.56;100230.47;1718004;83;21138;-72
2022/08/29 09:04:18;;;;;;;11.77;8.87;;;;;;;31.86;32.30;100233.02;1714932;83;21573;-72
2022/08/29 09:06:50;;;;;;;12.50;9.57;;;;;;;31.96;32.13;100230.16;1718861;83;21510;-74
2022/08/29 09:09:57;;;;;;;13.40;9.50;;;;;;;32.11;32.19;100230.00;1715261;82;21525;-72
2022/08/29 09:12:52;;;;;;;13.00;8.53;;;;;;;32.19;31.48;100234.27;1712776;82;21012;-72
2022/08/29 09:15:24;;;;;;;12.23;9.23;;;;;;;32.22;31.20;100234.22;1700534;83;21538;-73
2022/08/29 09:18:01;;;;;;;11.07;8.53;;;;;;;32.27;31.04;100238.49;1716867;82;21143;-73
2022/08/29 09:20:31;;;;;;;13.17;9.47;;;;;;;32.39;30.64;100229.67;1686532;83;21086;-72
2022/08/29 09:23:26;;;;;;;8.88;7.80;;;;;;;32.48;31.15;100236.69;1719045;83;21251;-73
2022/08/29 09:25:52;;;;;;;9.40;8.25;;;;;;;32.44;29.51;100238.90;1718937;83;20972;-72
2022/08/29 09:28:19;;;;;;;9.07;7.63;;;;;;;32.33;28.43;100234.08;1717418;83;21257;-72
2022/08/29 09:31:23;;;;;;;13.60;8.53;;;;;;;32.19;28.64;100222.61;1719147;83;20976;-71
2022/08/29 09:33:54;;;;;;;10.87;7.90;;;;;;;32.17;28.48;100231.12;1718681;83;21037;-72
2022/08/29 09:36:45;;;;;;;12.45;8.40;;;;;;;32.20;28.49;100239.36;1719259;83;21260;-71
2022/08/29 09:39:21;;;;;;;12.33;8.80;;;;;;;32.20;28.05;100225.55;1718893;83;21006;-72
2022/08/29 09:42:12;;;;;;;9.23;7.53;;;;;;;32.25;28.58;100227.09;1719017;83;21512;-72
2022/08/29 09:44:42;;;;;;;13.60;9.25;;;;;;;32.35;28.27;100224.79;1717709;83;21037;-73
2022/08/29 09:47:13;;;;;;;10.45;7.53;;;;;;;32.51;28.84;100228.95;1691039;83;21064;-72
2022/08/29 09:49:43;;;;;;;13.98;8.13;;;;;;;32.62;28.65;100225.46;1717823;83;21472;-72
2022/08/29 09:52:14;;;;;;;;;;;;;;;32.68;28.54;100225.97;1717732;82;21637;-71
2022/08/29 09:54:42;;;;;;;11.50;8.10;;;;;;;32.75;28.37;100226.46;1717273;82;20192;-71
2022/08/29 09:57:20;;;;;;;9.58;7.78;;;;;;;32.79;27.88;100221.66;1718805;83;21530;-73
2022/08/29 10:00:12;;;;;;;13.32;8.00;;;;;;;32.83;27.82;100218.84;1718213;82;21042;-71
2022/08/29 10:02:47;;;;;;;9.00;7.55;;;;;;;32.87;27.85;100214.03;1715193;82;21557;-72
2022/08/29 10:05:40;;;;;;;10.82;7.62;;;;;;;32.85;26.82;100213.08;1712914;82;21087;-72
2022/08/29 10:08:28;;;;;;;10.40;7.67;;;;;;;32.87;27.29;100214.03;1714549;82;21105;-72
2022/08/29 10:10:58;;;;;;;11.00;7.58;;;;;;;32.97;27.44;100214.49;1715275;82;21098;-72
2022/08/29 10:13:34;;;;;;;11.83;7.83;;;;;;;33.06;26.69;100209.83;1718016;82;21004;-73
2022/08/29 10:16:31;;;;;;;9.78;7.67;;;;;;;33.09;25.93;100213.14;1718534;83;21233;-71
2022/08/29 10:19:04;;;;;;;9.85;7.85;;;;;;;33.10;26.53;100213.31;1692392;83;21047;-73
2022/08/29 10:22:04;;;;;;;9.03;7.83;;;;;;;33.08;25.91;100227.58;1716997;82;21087;-73
2022/08/29 10:24:58;;;;;;;12.73;8.28;;;;;;;32.98;26.26;100211.16;1715434;82;21118;-72
2022/08/29 10:27:55;;;;;;;9.33;7.37;;;;;;;32.94;26.70;100209.80;1718831;83;21094;-73
2022/08/29 10:30:25;;;;;;;12.40;7.40;;;;;;;33.00;26.85;100208.12;1718319;83;21171;-72
2022/08/29 10:33:09;;;;;;;10.95;7.50;;;;;;;32.99;26.34;100213.48;1718071;83;21722;-72
2022/08/29 10:35:48;;;;;;;10.28;7.47;;;;;;;32.99;26.82;100207.17;1719118;83;20978;-73
2022/08/29 10:38:37;;;;;;;9.23;7.42;;;;;;;33.01;26.66;100208.94;1718580;83;21096;-73
2022/08/29 10:41:33;;;;;;;8.40;6.95;;;;;;;33.04;26.49;100202.53;1719424;82;21761;-70
2022/08/29 10:44:16;;;;;;;10.20;7.22;;;;;;;33.11;26.43;100196.30;1718709;83;21098;-73
2022/08/29 10:46:57;;;;;;;11.18;7.78;;;;;;;33.20;25.78;100195.75;1719316;83;21088;-70
2022/08/29 10:49:43;;;;;;;11.48;8.10;;;;;;;33.28;26.28;100205.52;1704654;83;25821;-73
2022/08/29 10:52:37;;;;;;;10.40;7.47;;;;;;;33.26;26.08;100200.98;1717700;83;21057;-74
2022/08/29 10:55:28;;;;;;;9.43;7.22;;;;;;;33.25;26.16;100195.28;1718828;83;21584;-73
2022/08/29 10:58:06;;;;;;;10.50;7.33;;;;;;;33.27;26.31;100197.61;1718981;83;21171;-73
2022/08/29 11:00:51;;;;;;;11.35;8.03;;;;;;;33.45;25.68;100193.17;1718738;83;20962;-73
2022/08/29 11:03:38;;;;;;;9.85;7.30;;;;;;;33.53;25.80;100190.47;1718850;83;20974;-72
2022/08/29 11:06:10;;;;;;;14.98;7.95;;;;;;;33.56;26.11;100192.40;1718644;83;20957;-72
2022/08/29 11:08:45;;;;;;;19.57;16.20;;;;;;;33.57;25.69;100198.14;1718949;83;21088;-73
2022/08/29 11:11:14;;;;;;;19.85;16.27;;;;;;;33.55;25.89;100204.69;1719187;83;21642;-75
2022/08/29 11:13:47;;;;;;;17.30;11.53;;;;;;;33.55;25.79;100204.69;1718837;83;26772;-73
2022/08/29 11:16:28;;;;;;;12.43;9.00;;;;;;;33.58;25.60;100203.84;1718881;83;20989;-73
2022/08/29 11:19:06;;;;;;;12.45;8.15;;;;;;;33.66;25.53;100199.73;1719396;83;21069;-74
2022/08/29 11:21:46;;;;;;;13.15;8.35;;;;;;;33.78;26.32;100199.11;1726869;83;21062;-73
2022/08/29 11:24:14;;;;;;;11.45;7.12;;;;;;;33.94;26.32;100196.25;1719119;83;21465;-72
2022/08/29 11:27:11;;;;;;;8.35;6.75;;;;;;;34.07;25.45;100186.13;1718609;83;21776;-73
2022/08/29 11:29:59;;;;;;;13.93;7.72;;;;;;;34.12;25.08;100192.53;1718202;83;21023;-74
2022/08/29 11:32:55;;;;;;;10.43;7.17;;;;;;;34.16;25.63;100199.42;1677762;83;21530;-74
2022/08/29 11:36:01;;;;;;;12.40;6.80;;;;;;;34.20;25.38;100187.04;1726885;83;21474;-72
2022/08/29 11:39:05;;;;;;;7.65;6.40;;;;;;;34.26;24.38;100197.03;1717087;83;21695;-74
2022/08/29 11:41:44;;;;;;;10.25;6.20;;;;;;;34.22;23.69;100196.30;1719139;83;20981;-72
2022/08/29 11:44:31;;;;;;;10.60;6.47;;;;;;;34.16;24.14;100198.81;1726422;83;21537;-72
2022/08/29 11:46:57;;;;;;;12.78;7.40;;;;;;;34.22;24.21;100192.95;1718937;83;21081;-72